sensor_id;sensor_type;location;lat;lon;timestamp;pressure;altitude;pressure_sealevel;temperature;humidity
18795;BME280;29610;49.022;12.114;2022-08-19T00:01:58;97027.13;;;21.49;100.00
18795;BME280;29610;49.022;12.114;2022-08-19T00:04:31;97010.63;;;21.42;100.00
18795;BME280;29610;49.022;12.114;2022-08-19T00:07:06;97009.09;;;21.38;100.00
18795;BME280;29610;49.022;12.114;2022-08-19T00:09:35;97028.41;;;21.41;100.00
18795;BME280;29610;49.022;12.114;2022-08-19T00:12:04;97031.94;;;21.45;100.00
18795;BME280;29610;49.022;12.114;2022-08-19T00:14:33;97023.63;;;21.45;100.00
18795;BME280;29610;49.022;12.114;2022-08-19T00:17:02;97030.84;;;21.32;100.00
18795;BME280;29610;49.022;12.114;2022-08-19T00:19:31;97041.44;;;21.41;100.00
18795;BME280;29610;49.022;12.114;2022-08-19T00:22:00;97050.16;;;21.39;100.00
18795;BME280;29610;49.022;12.114;2022-08-19T00:24:32;97069.13;;;21.34;100.00
18795;BME280;29610;49.022;12.114;2022-08-19T00:27:01;97076.72;;;21.23;100.00
18795;BME280;29610;49.022;12.114;2022-08-19T00:29:50;97077.50;;;21.23;100.00
18795;BME280;29610;49.022;12.114;2022-08-19T00:32:19;97074.78;;;21.16;100.00
18795;BME280;29610;49.022;12.114;2022-08-19T00:34:52;97066.50;;;21.16;100.00
18795;BME280;29610;49.022;12.114;2022-08-19T00:37:21;97064.94;;;21.12;100.00
18795;BME280;29610;49.022;12.114;2022-08-19T00:39:55;97072.44;;;21.11;100.00
18795;BME280;29610;49.022;12.114;2022-08-19T00:42:25;97080.75;;;21.08;100.00
18795;BME280;29610;49.022;12.114;2022-08-19T00:44:58;97078.78;;;21.08;100.00
18795;BME280;29610;49.022;12.114;2022-08-19T00:47:27;97087.06;;;21.08;100.00
18795;BME280;29610;49.022;12.114;2022-08-19T00:49:58;97085.91;;;20.95;100.00
18795;BME280;29610;49.022;12.114;2022-08-19T00:56:59;97077.22;;;21.04;100.00
18795;BME280;29610;49.022;12.114;2022-08-19T00:59:30;97078.44;;;20.99;100.00
18795;BME280;29610;49.022;12.114;2022-08-19T01:02:25;97067.88;;;20.77;100.00
18795;BME280;29610;49.022;12.114;2022-08-19T01:04:57;97078.50;;;20.85;100.00
18795;BME280;29610;49.022;12.114;2022-08-19T01:07:31;97078.03;;;20.94;100.00
18795;BME280;29610;49.022;12.114;2022-08-19T01:10:11;97089.50;;;20.99;100.00
18795;BME280;29610;49.022;12.114;2022-08-19T01:12:42;97098.91;;;21.09;100.00
18795;BME280;29610;49.022;12.114;2022-08-19T01:15:17;97109.88;;;21.19;100.00
18795;BME280;29610;49.022;12.114;2022-08-19T01:17:48;97106.72;;;21.21;100.00
18795;BME280;29610;49.022;12.114;2022-08-19T01:20:23;97116.63;;;21.18;100.00
18795;BME280;29610;49.022;12.114;2022-08-19T01:22:58;97110.34;;;21.11;100.00
18795;BME280;29610;49.022;12.114;2022-08-19T01:25:32;97113.03;;;21.25;100.00
18795;BME280;29610;49.022;12.114;2022-08-19T01:28:05;97101.16;;;21.28;100.00
18795;BME280;29610;49.022;12.114;2022-08-19T01:30:40;97087.47;;;21.10;100.00
18795;BME280;29610;49.022;12.114;2022-08-19T01:33:11;97096.78;;;21.30;100.00
18795;BME280;29610;49.022;12.114;2022-08-19T01:35:41;97096.03;;;21.30;100.00
18795;BME280;29610;49.022;12.114;2022-08-19T01:38:22;97106.38;;;21.15;100.00
18795;BME280;29610;49.022;12.114;2022-08-19T01:40:53;97100.78;;;21.22;100.00
18795;BME280;29610;49.022;12.114;2022-08-19T01:43:22;97111.03;;;21.25;100.00
18795;BME280;29610;49.022;12.114;2022-08-19T01:45:51;97112.59;;;21.30;100.00
18795;BME280;29610;49.022;12.114;2022-08-19T01:48:20;97106.41;;;21.08;100.00
18795;BME280;29610;49.022;12.114;2022-08-19T01:50:50;97092.31;;;20.82;100.00
18795;BME280;29610;49.022;12.114;2022-08-19T01:53:20;97099.81;;;20.81;100.00
18795;BME280;29610;49.022;12.114;2022-08-19T01:55:53;97089.16;;;20.83;100.00
18795;BME280;29610;49.022;12.114;2022-08-19T01:58:28;97083.63;;;20.87;100.00
18795;BME280;29610;49.022;12.114;2022-08-19T02:01:08;97077.72;;;20.81;100.00
18795;BME280;29610;49.022;12.114;2022-08-19T02:03:37;97071.44;;;20.77;100.00
18795;BME280;29610;49.022;12.114;2022-08-19T02:06:06;97080.09;;;20.79;100.00
18795;BME280;29610;49.022;12.114;2022-08-19T02:08:38;97087.97;;;20.81;100.00
18795;BME280;29610;49.022;12.114;2022-08-19T02:11:07;97096.22;;;20.91;100.00
18795;BME280;29610;49.022;12.114;2022-08-19T02:13:39;97097.00;;;20.92;100.00
18795;BME280;29610;49.022;12.114;2022-08-19T02:16:10;97092.66;;;20.98;100.00
18795;BME280;29610;49.022;12.114;2022-08-19T02:18:38;97094.56;;;21.08;100.00
18795;BME280;29610;49.022;12.114;2022-08-19T02:21:10;97091.03;;;21.07;100.00
18795;BME280;29610;49.022;12.114;2022-08-19T02:23:58;97101.69;;;21.09;100.00
18795;BME280;29610;49.022;12.114;2022-08-19T02:26:27;97113.91;;;21.08;100.00
18795;BME280;29610;49.022;12.114;2022-08-19T02:28:56;97112.31;;;21.14;100.00
18795;BME280;29610;49.022;12.114;2022-08-19T02:31:27;97104.44;;;21.09;100.00
18795;BME280;29610;49.022;12.114;2022-08-19T02:34:01;97096.94;;;21.09;100.00
18795;BME280;29610;49.022;12.114;2022-08-19T02:36:37;97104.34;;;21.19;100.00
18795;BME280;29610;49.022;12.114;2022-08-19T02:39:20;97102.78;;;21.22;100.00
18795;BME280;29610;49.022;12.114;2022-08-19T02:41:48;97086.94;;;21.26;100.00
18795;BME280;29610;49.022;12.114;2022-08-19T02:44:19;97094.09;;;21.20;100.00
18795;BME280;29610;49.022;12.114;2022-08-19T02:47:01;97097.59;;;21.27;100.00
18795;BME280;29610;49.022;12.114;2022-08-19T02:49:31;97092.88;;;21.28;100.00
18795;BME280;29610;49.022;12.114;2022-08-19T02:52:04;97091.66;;;21.29;100.00
18795;BME280;29610;49.022;12.114;2022-08-19T02:54:34;97088.47;;;21.37;100.00
18795;BME280;29610;49.022;12.114;2022-08-19T02:57:25;97075.78;;;21.40;100.00
18795;BME280;29610;49.022;12.114;2022-08-19T03:00:06;97073.00;;;21.43;100.00
18795;BME280;29610;49.022;12.114;2022-08-19T03:02:35;97069.53;;;21.32;100.00
18795;BME280;29610;49.022;12.114;2022-08-19T03:05:10;97068.75;;;21.32;100.00
18795;BME280;29610;49.022;12.114;2022-08-19T03:07:39;97080.56;;;21.39;100.00
18795;BME280;29610;49.022;12.114;2022-08-19T03:10:09;97080.59;;;21.32;100.00
18795;BME280;29610;49.022;12.114;2022-08-19T03:12:42;97079.47;;;21.26;100.00
18795;BME280;29610;49.022;12.114;2022-08-19T03:15:22;97085.00;;;21.23;100.00
18795;BME280;29610;49.022;12.114;2022-08-19T03:17:52;97088.16;;;21.21;100.00
18795;BME280;29610;49.022;12.114;2022-08-19T03:20:25;97093.28;;;21.23;100.00
18795;BME280;29610;49.022;12.114;2022-08-19T03:22:54;97089.59;;;21.40;100.00
18795;BME280;29610;49.022;12.114;2022-08-19T03:25:25;97082.03;;;21.51;100.00
18795;BME280;29610;49.022;12.114;2022-08-19T03:27:53;97089.66;;;21.36;100.00
18795;BME280;29610;49.022;12.114;2022-08-19T03:30:22;97108.19;;;21.39;100.00
18795;BME280;29610;49.022;12.114;2022-08-19T03:32:55;97127.19;;;21.30;100.00
18795;BME280;29610;49.022;12.114;2022-08-19T03:35:32;97140.59;;;21.32;100.00
18795;BME280;29610;49.022;12.114;2022-08-19T03:38:07;97139.88;;;21.24;100.00
18795;BME280;29610;49.022;12.114;2022-08-19T03:40:37;97145.38;;;21.24;100.00
18795;BME280;29610;49.022;12.114;2022-08-19T03:43:06;97141.38;;;21.36;100.00
18795;BME280;29610;49.022;12.114;2022-08-19T03:45:34;97133.84;;;21.40;100.00
18795;BME280;29610;49.022;12.114;2022-08-19T03:48:03;97126.31;;;21.44;100.00
18795;BME280;29610;49.022;12.114;2022-08-19T03:50:32;97111.41;;;21.27;100.00
18795;BME280;29610;49.022;12.114;2022-08-19T03:53:00;97118.03;;;21.44;100.00
18795;BME280;29610;49.022;12.114;2022-08-19T03:55:29;97122.81;;;21.36;100.00
18795;BME280;29610;49.022;12.114;2022-08-19T03:57:59;97118.06;;;21.37;100.00
18795;BME280;29610;49.022;12.114;2022-08-19T04:00:27;97120.84;;;21.33;100.00
18795;BME280;29610;49.022;12.114;2022-08-19T04:02:56;97121.25;;;21.32;100.00
18795;BME280;29610;49.022;12.114;2022-08-19T04:05:28;97133.50;;;21.34;100.00
18795;BME280;29610;49.022;12.114;2022-08-19T04:07:57;97149.69;;;21.29;100.00
18795;BME280;29610;49.022;12.114;2022-08-19T04:10:26;97159.50;;;21.40;100.00
18795;BME280;29610;49.022;12.114;2022-08-19T04:12:55;97152.84;;;21.34;100.00
18795;BME280;29610;49.022;12.114;2022-08-19T04:15:25;97156.00;;;21.33;100.00
18795;BME280;29610;49.022;12.114;2022-08-19T04:17:59;97162.34;;;21.30;100.00
18795;BME280;29610;49.022;12.114;2022-08-19T04:20:27;97169.75;;;21.43;100.00
18795;BME280;29610;49.022;12.114;2022-08-19T04:22:57;97162.69;;;21.39;100.00
18795;BME280;29610;49.022;12.114;2022-08-19T04:25:25;97161.47;;;21.43;100.00
18795;BME280;29610;49.022;12.114;2022-08-19T04:27:54;97167.81;;;21.37;100.00
18795;BME280;29610;49.022;12.114;2022-08-19T04:30:22;97174.88;;;21.45;100.00
18795;BME280;29610;49.022;12.114;2022-08-19T04:32:52;97187.88;;;21.48;100.00
18795;BME280;29610;49.022;12.114;2022-08-19T04:35:21;97195.78;;;21.49;100.00
18795;BME280;29610;49.022;12.114;2022-08-19T04:37:51;97193.41;;;21.48;100.00
18795;BME280;29610;49.022;12.114;2022-08-19T04:40:19;97193.41;;;21.51;100.00
18795;BME280;29610;49.022;12.114;2022-08-19T04:43:05;97184.06;;;21.28;100.00
18795;BME280;29610;49.022;12.114;2022-08-19T04:45:36;97182.63;;;20.88;100.00
18795;BME280;29610;49.022;12.114;2022-08-19T04:48:11;97168.38;;;21.07;100.00
18795;BME280;29610;49.022;12.114;2022-08-19T04:50:55;97171.97;;;20.97;100.00
18795;BME280;29610;49.022;12.114;2022-08-19T04:53:26;97189.28;;;21.05;100.00
18795;BME280;29610;49.022;12.114;2022-08-19T04:56:07;97193.97;;;21.22;100.00
18795;BME280;29610;49.022;12.114;2022-08-19T04:58:38;97191.94;;;21.36;100.00
18795;BME280;29610;49.022;12.114;2022-08-19T05:01:11;97200.91;;;21.51;100.00
18795;BME280;29610;49.022;12.114;2022-08-19T05:03:41;97195.78;;;21.49;100.00
18795;BME280;29610;49.022;12.114;2022-08-19T05:06:13;97181.91;;;21.60;100.00
18795;BME280;29610;49.022;12.114;2022-08-19T05:08:44;97186.41;;;21.29;100.00
18795;BME280;29610;49.022;12.114;2022-08-19T05:11:15;97195.91;;;21.28;100.00
18795;BME280;29610;49.022;12.114;2022-08-19T05:13:45;97192.69;;;21.40;100.00
18795;BME280;29610;49.022;12.114;2022-08-19T05:16:18;97204.47;;;21.48;100.00
18795;BME280;29610;49.022;12.114;2022-08-19T05:18:50;97199.25;;;21.60;100.00
18795;BME280;29610;49.022;12.114;2022-08-19T05:21:41;97203.59;;;21.65;100.00
18795;BME280;29610;49.022;12.114;2022-08-19T05:24:29;97209.88;;;21.72;100.00
18795;BME280;29610;49.022;12.114;2022-08-19T05:26:58;97207.88;;;21.77;100.00
18795;BME280;29610;49.022;12.114;2022-08-19T05:29:29;97218.94;;;21.77;100.00
18795;BME280;29610;49.022;12.114;2022-08-19T05:32:05;97224.63;;;21.48;100.00
18795;BME280;29610;49.022;12.114;2022-08-19T05:34:37;97223.19;;;21.16;100.00
18795;BME280;29610;49.022;12.114;2022-08-19T05:37:07;97221.53;;;21.32;100.00
18795;BME280;29610;49.022;12.114;2022-08-19T05:39:37;97221.19;;;21.27;100.00
18795;BME280;29610;49.022;12.114;2022-08-19T05:42:11;97223.22;;;21.09;100.00
18795;BME280;29610;49.022;12.114;2022-08-19T05:44:43;97220.34;;;21.33;100.00
18795;BME280;29610;49.022;12.114;2022-08-19T05:47:13;97218.69;;;21.50;100.00
18795;BME280;29610;49.022;12.114;2022-08-19T05:49:43;97226.97;;;21.53;100.00
18795;BME280;29610;49.022;12.114;2022-08-19T05:52:15;97219.53;;;21.40;100.00
18795;BME280;29610;49.022;12.114;2022-08-19T05:54:46;97221.00;;;21.58;100.00
18795;BME280;29610;49.022;12.114;2022-08-19T05:57:18;97211.94;;;21.51;100.00
18795;BME280;29610;49.022;12.114;2022-08-19T05:59:47;97209.56;;;21.56;100.00
18795;BME280;29610;49.022;12.114;2022-08-19T06:02:24;97213.22;;;21.39;100.00
18795;BME280;29610;49.022;12.114;2022-08-19T06:04:54;97214.78;;;21.44;100.00
18795;BME280;29610;49.022;12.114;2022-08-19T06:07:23;97207.66;;;21.46;100.00
18795;BME280;29610;49.022;12.114;2022-08-19T06:09:52;97206.78;;;21.63;100.00
18795;BME280;29610;49.022;12.114;2022-08-19T06:12:27;97200.38;;;21.70;100.00
18795;BME280;29610;49.022;12.114;2022-08-19T06:15:05;97203.16;;;21.70;100.00
18795;BME280;29610;49.022;12.114;2022-08-19T06:17:34;97194.94;;;21.59;100.00
18795;BME280;29610;49.022;12.114;2022-08-19T06:20:08;97194.19;;;21.55;100.00
18795;BME280;29610;49.022;12.114;2022-08-19T06:22:43;97190.31;;;21.39;100.00
18795;BME280;29610;49.022;12.114;2022-08-19T06:25:13;97197.09;;;21.24;100.00
18795;BME280;29610;49.022;12.114;2022-08-19T06:27:42;97196.69;;;21.25;100.00
18795;BME280;29610;49.022;12.114;2022-08-19T06:30:31;97190.00;;;21.26;100.00
18795;BME280;29610;49.022;12.114;2022-08-19T06:33:04;97194.72;;;21.26;100.00
18795;BME280;29610;49.022;12.114;2022-08-19T06:35:40;97201.88;;;21.16;100.00
18795;BME280;29610;49.022;12.114;2022-08-19T06:38:09;97202.59;;;21.31;100.00
18795;BME280;29610;49.022;12.114;2022-08-19T06:40:37;97210.47;;;21.36;100.00
18795;BME280;29610;49.022;12.114;2022-08-19T06:43:06;97214.47;;;21.28;100.00
18795;BME280;29610;49.022;12.114;2022-08-19T06:45:37;97232.13;;;21.48;100.00
18795;BME280;29610;49.022;12.114;2022-08-19T06:48:06;97229.75;;;21.46;100.00
18795;BME280;29610;49.022;12.114;2022-08-19T06:50:39;97227.78;;;21.47;100.00
18795;BME280;29610;49.022;12.114;2022-08-19T06:53:07;97227.28;;;21.66;100.00
18795;BME280;29610;49.022;12.114;2022-08-19T06:55:38;97233.38;;;21.36;100.00
18795;BME280;29610;49.022;12.114;2022-08-19T06:58:11;97234.69;;;21.04;100.00
18795;BME280;29610;49.022;12.114;2022-08-19T07:00:49;97230.78;;;21.01;100.00
18795;BME280;29610;49.022;12.114;2022-08-19T07:03:19;97227.09;;;21.29;100.00
18795;BME280;29610;49.022;12.114;2022-08-19T07:05:52;97231.66;;;21.60;100.00
18795;BME280;29610;49.022;12.114;2022-08-19T07:08:20;97219.00;;;21.62;100.00
18795;BME280;29610;49.022;12.114;2022-08-19T07:10:55;97215.75;;;21.78;100.00
18795;BME280;29610;49.022;12.114;2022-08-19T07:13:30;97205.34;;;22.00;100.00
18795;BME280;29610;49.022;12.114;2022-08-19T07:16:07;97198.56;;;22.08;100.00
18795;BME280;29610;49.022;12.114;2022-08-19T07:18:39;97193.34;;;22.17;100.00
18795;BME280;29610;49.022;12.114;2022-08-19T07:21:23;97193.16;;;22.38;100.00
18795;BME280;29610;49.022;12.114;2022-08-19T07:23:59;97210.53;;;22.42;100.00
18795;BME280;29610;49.022;12.114;2022-08-19T07:26:39;97214.00;;;22.53;100.00
18795;BME280;29610;49.022;12.114;2022-08-19T07:29:12;97213.00;;;22.73;100.00
18795;BME280;29610;49.022;12.114;2022-08-19T07:31:47;97214.94;;;22.76;100.00
18795;BME280;29610;49.022;12.114;2022-08-19T07:34:18;97214.84;;;22.83;100.00
18795;BME280;29610;49.022;12.114;2022-08-19T07:36:56;97209.22;;;22.94;100.00
18795;BME280;29610;49.022;12.114;2022-08-19T07:39:32;97212.81;;;22.91;100.00
18795;BME280;29610;49.022;12.114;2022-08-19T07:42:06;97220.59;;;22.99;100.00
18795;BME280;29610;49.022;12.114;2022-08-19T07:44:40;97217.81;;;23.03;100.00
18795;BME280;29610;49.022;12.114;2022-08-19T07:47:17;97223.22;;;22.80;100.00
18795;BME280;29610;49.022;12.114;2022-08-19T07:50:11;97226.09;;;22.69;100.00
18795;BME280;29610;49.022;12.114;2022-08-19T07:52:41;97221.31;;;22.73;100.00
18795;BME280;29610;49.022;12.114;2022-08-19T07:55:22;97233.31;;;22.60;100.00
18795;BME280;29610;49.022;12.114;2022-08-19T07:58:12;97232.19;;;22.54;100.00
18795;BME280;29610;49.022;12.114;2022-08-19T08:00:46;97227.06;;;22.49;100.00
18795;BME280;29610;49.022;12.114;2022-08-19T08:03:21;97233.53;;;22.35;100.00
18795;BME280;29610;49.022;12.114;2022-08-19T08:06:13;97230.28;;;22.40;100.00
18795;BME280;29610;49.022;12.114;2022-08-19T08:09:02;97224.56;;;22.65;100.00
18795;BME280;29610;49.022;12.114;2022-08-19T08:11:47;97229.34;;;22.13;100.00
18795;BME280;29610;49.022;12.114;2022-08-19T08:14:20;97219.34;;;22.26;100.00
18795;BME280;29610;49.022;12.114;2022-08-19T08:16:56;97215.97;;;22.56;100.00
18795;BME280;29610;49.022;12.114;2022-08-19T08:19:27;97207.56;;;22.63;100.00
18795;BME280;29610;49.022;12.114;2022-08-19T08:21:59;97205.38;;;22.84;100.00
18795;BME280;29610;49.022;12.114;2022-08-19T08:24:31;97202.13;;;22.89;100.00
18795;BME280;29610;49.022;12.114;2022-08-19T08:27:01;97211.19;;;23.27;100.00
18795;BME280;29610;49.022;12.114;2022-08-19T08:29:37;97205.81;;;23.13;100.00
18795;BME280;29610;49.022;12.114;2022-08-19T08:32:08;97197.44;;;22.86;100.00
18795;BME280;29610;49.022;12.114;2022-08-19T08:34:41;97189.41;;;23.29;100.00
18795;BME280;29610;49.022;12.114;2022-08-19T08:37:10;97184.81;;;23.46;100.00
18795;BME280;29610;49.022;12.114;2022-08-19T08:39:43;97176.75;;;23.25;100.00
18795;BME280;29610;49.022;12.114;2022-08-19T08:42:22;97179.69;;;23.44;100.00
18795;BME280;29610;49.022;12.114;2022-08-19T08:44:58;97162.78;;;23.88;100.00
18795;BME280;29610;49.022;12.114;2022-08-19T08:47:33;97176.03;;;24.04;100.00
18795;BME280;29610;49.022;12.114;2022-08-19T08:50:08;97165.00;;;24.23;100.00
18795;BME280;29610;49.022;12.114;2022-08-19T08:52:45;97172.13;;;24.01;100.00
18795;BME280;29610;49.022;12.114;2022-08-19T08:55:20;97161.25;;;23.57;100.00
18795;BME280;29610;49.022;12.114;2022-08-19T08:57:55;97150.31;;;23.73;100.00
18795;BME280;29610;49.022;12.114;2022-08-19T09:00:32;97143.22;;;23.72;100.00
18795;BME280;29610;49.022;12.114;2022-08-19T09:03:03;97149.13;;;23.74;100.00
18795;BME280;29610;49.022;12.114;2022-08-19T09:05:43;97153.28;;;23.86;100.00
18795;BME280;29610;49.022;12.114;2022-08-19T09:08:30;97151.44;;;24.48;100.00
18795;BME280;29610;49.022;12.114;2022-08-19T09:11:10;97149.34;;;24.33;100.00
18795;BME280;29610;49.022;12.114;2022-08-19T09:14:12;97171.44;;;24.40;100.00
18795;BME280;29610;49.022;12.114;2022-08-19T09:17:04;97176.97;;;24.40;100.00
18795;BME280;29610;49.022;12.114;2022-08-19T09:19:36;97176.47;;;23.76;100.00
18795;BME280;29610;49.022;12.114;2022-08-19T09:22:15;97169.47;;;23.91;100.00
18795;BME280;29610;49.022;12.114;2022-08-19T09:24:53;97180.84;;;24.00;100.00
18795;BME280;29610;49.022;12.114;2022-08-19T09:27:25;97179.91;;;23.57;100.00
18795;BME280;29610;49.022;12.114;2022-08-19T09:30:15;97186.19;;;23.61;100.00
18795;BME280;29610;49.022;12.114;2022-08-19T09:32:45;97192.69;;;23.47;100.00
18795;BME280;29610;49.022;12.114;2022-08-19T09:35:20;97198.22;;;23.17;100.00
18795;BME280;29610;49.022;12.114;2022-08-19T09:37:51;97197.34;;;23.27;100.00
18795;BME280;29610;49.022;12.114;2022-08-19T09:40:29;97192.03;;;23.40;100.00
18795;BME280;29610;49.022;12.114;2022-08-19T09:43:05;97188.94;;;23.87;100.00
18795;BME280;29610;49.022;12.114;2022-08-19T09:45:39;97192.84;;;23.93;100.00
18795;BME280;29610;49.022;12.114;2022-08-19T09:48:08;97196.69;;;24.03;100.00
18795;BME280;29610;49.022;12.114;2022-08-19T09:50:38;97198.19;;;24.30;100.00
18795;BME280;29610;49.022;12.114;2022-08-19T09:53:19;97195.69;;;24.59;100.00
18795;BME280;29610;49.022;12.114;2022-08-19T09:55:52;97203.59;;;24.61;100.00
18795;BME280;29610;49.022;12.114;2022-08-19T09:58:21;97207.16;;;24.84;100.00
18795;BME280;29610;49.022;12.114;2022-08-19T10:00:55;97207.97;;;24.38;100.00
18795;BME280;29610;49.022;12.114;2022-08-19T10:03:24;97210.66;;;24.65;100.00
18795;BME280;29610;49.022;12.114;2022-08-19T10:05:59;97208.84;;;24.78;100.00
18795;BME280;29610;49.022;12.114;2022-08-19T10:08:41;97207.97;;;24.38;100.00
18795;BME280;29610;49.022;12.114;2022-08-19T10:11:18;97219.41;;;23.91;100.00
18795;BME280;29610;49.022;12.114;2022-08-19T10:14:04;97220.34;;;23.81;100.00
18795;BME280;29610;49.022;12.114;2022-08-19T10:16:36;97215.09;;;23.90;100.00
18795;BME280;29610;49.022;12.114;2022-08-19T10:19:06;97219.53;;;23.84;100.00
18795;BME280;29610;49.022;12.114;2022-08-19T10:21:36;97215.69;;;23.48;100.00
18795;BME280;29610;49.022;12.114;2022-08-19T10:24:06;97217.84;;;23.33;100.00
18795;BME280;29610;49.022;12.114;2022-08-19T10:26:39;97217.13;;;23.59;100.00
18795;BME280;29610;49.022;12.114;2022-08-19T10:29:10;97208.13;;;23.78;100.00
18795;BME280;29610;49.022;12.114;2022-08-19T10:31:39;97207.31;;;23.78;100.00
18795;BME280;29610;49.022;12.114;2022-08-19T10:34:29;97203.66;;;23.84;100.00
18795;BME280;29610;49.022;12.114;2022-08-19T10:36:58;97204.38;;;23.62;100.00
18795;BME280;29610;49.022;12.114;2022-08-19T10:39:28;97188.88;;;23.91;100.00
18795;BME280;29610;49.022;12.114;2022-08-19T10:42:08;97190.31;;;24.25;100.00
18795;BME280;29610;49.022;12.114;2022-08-19T10:44:39;97194.06;;;24.62;100.00
18795;BME280;29610;49.022;12.114;2022-08-19T10:47:08;97194.03;;;24.85;100.00
18795;BME280;29610;49.022;12.114;2022-08-19T10:49:54;97194.53;;;24.57;100.00
18795;BME280;29610;49.022;12.114;2022-08-19T10:52:42;97183.63;;;24.46;100.00
18795;BME280;29610;49.022;12.114;2022-08-19T10:55:19;97181.81;;;24.36;100.00
18795;BME280;29610;49.022;12.114;2022-08-19T10:58:11;97190.63;;;24.31;100.00
18795;BME280;29610;49.022;12.114;2022-08-19T11:00:42;97189.59;;;24.68;100.00
18795;BME280;29610;49.022;12.114;2022-08-19T11:03:11;97182.50;;;24.86;100.00
18795;BME280;29610;49.022;12.114;2022-08-19T11:05:40;97186.00;;;24.90;100.00
18795;BME280;29610;49.022;12.114;2022-08-19T11:08:09;97188.56;;;25.01;100.00
18795;BME280;29610;49.022;12.114;2022-08-19T11:10:51;97182.28;;;24.77;100.00
18795;BME280;29610;49.022;12.114;2022-08-19T11:13:25;97185.47;;;24.52;100.00
18795;BME280;29610;49.022;12.114;2022-08-19T11:15:59;97182.88;;;24.65;100.00
18795;BME280;29610;49.022;12.114;2022-08-19T11:18:38;97181.56;;;24.50;100.00
18795;BME280;29610;49.022;12.114;2022-08-19T11:21:12;97178.69;;;24.11;100.00
18795;BME280;29610;49.022;12.114;2022-08-19T11:23:41;97187.22;;;24.23;100.00
18795;BME280;29610;49.022;12.114;2022-08-19T11:26:10;97181.72;;;24.20;100.00
18795;BME280;29610;49.022;12.114;2022-08-19T11:28:40;97183.19;;;23.75;100.00
18795;BME280;29610;49.022;12.114;2022-08-19T11:31:15;97178.91;;;23.44;100.00
18795;BME280;29610;49.022;12.114;2022-08-19T11:33:45;97182.16;;;23.39;100.00
18795;BME280;29610;49.022;12.114;2022-08-19T11:36:14;97183.75;;;23.36;100.00
18795;BME280;29610;49.022;12.114;2022-08-19T11:38:45;97191.09;;;23.20;100.00
18795;BME280;29610;49.022;12.114;2022-08-19T11:41:17;97189.06;;;23.20;100.00
18795;BME280;29610;49.022;12.114;2022-08-19T11:43:46;97196.81;;;23.05;100.00
18795;BME280;29610;49.022;12.114;2022-08-19T11:46:17;97190.50;;;22.68;100.00
18795;BME280;29610;49.022;12.114;2022-08-19T11:48:46;97204.19;;;22.41;100.00
18795;BME280;29610;49.022;12.114;2022-08-19T11:51:20;97200.78;;;22.27;100.00
18795;BME280;29610;49.022;12.114;2022-08-19T11:53:49;97198.53;;;22.11;100.00
18795;BME280;29610;49.022;12.114;2022-08-19T11:56:18;97201.75;;;22.03;100.00
18795;BME280;29610;49.022;12.114;2022-08-19T11:58:48;97211.56;;;22.11;100.00
18795;BME280;29610;49.022;12.114;2022-08-19T12:01:21;97204.84;;;22.12;100.00
18795;BME280;29610;49.022;12.114;2022-08-19T12:03:52;97196.31;;;21.92;100.00
18795;BME280;29610;49.022;12.114;2022-08-19T12:06:25;97195.81;;;22.04;100.00
18795;BME280;29610;49.022;12.114;2022-08-19T12:08:56;97194.72;;;21.91;100.00
18795;BME280;29610;49.022;12.114;2022-08-19T12:11:27;97200.25;;;21.95;100.00
18795;BME280;29610;49.022;12.114;2022-08-19T12:14:00;97210.16;;;21.92;100.00
18795;BME280;29610;49.022;12.114;2022-08-19T12:16:31;97200.97;;;22.02;100.00
18795;BME280;29610;49.022;12.114;2022-08-19T12:19:56;97201.59;;;21.65;100.00
18795;BME280;29610;49.022;12.114;2022-08-19T12:23:14;97196.97;;;21.48;100.00
18795;BME280;29610;49.022;12.114;2022-08-19T12:26:14;97207.53;;;21.67;100.00
18795;BME280;29610;49.022;12.114;2022-08-19T12:28:44;97200.75;;;21.83;100.00
18795;BME280;29610;49.022;12.114;2022-08-19T12:31:13;97194.28;;;22.00;100.00
18795;BME280;29610;49.022;12.114;2022-08-19T12:33:44;97196.19;;;22.10;100.00
18795;BME280;29610;49.022;12.114;2022-08-19T12:36:15;97200.41;;;22.21;100.00
18795;BME280;29610;49.022;12.114;2022-08-19T12:38:45;97195.09;;;22.41;100.00
18795;BME280;29610;49.022;12.114;2022-08-19T12:41:16;97203.47;;;22.74;100.00
18795;BME280;29610;49.022;12.114;2022-08-19T12:43:45;97201.19;;;23.03;100.00
18795;BME280;29610;49.022;12.114;2022-08-19T12:46:17;97193.78;;;23.27;100.00
18795;BME280;29610;49.022;12.114;2022-08-19T12:48:52;97188.00;;;23.44;100.00
18795;BME280;29610;49.022;12.114;2022-08-19T12:51:22;97192.78;;;23.70;100.00
18795;BME280;29610;49.022;12.114;2022-08-19T12:53:52;97191.28;;;23.89;100.00
18795;BME280;29610;49.022;12.114;2022-08-19T12:56:20;97186.97;;;23.88;100.00
18795;BME280;29610;49.022;12.114;2022-08-19T12:58:49;97187.56;;;23.76;100.00
18795;BME280;29610;49.022;12.114;2022-08-19T13:01:20;97183.72;;;23.93;100.00
18795;BME280;29610;49.022;12.114;2022-08-19T13:03:51;97184.31;;;24.07;100.00
18795;BME280;29610;49.022;12.114;2022-08-19T13:06:20;97179.28;;;24.45;100.00
18795;BME280;29610;49.022;12.114;2022-08-19T13:08:49;97182.31;;;24.54;100.00
18795;BME280;29610;49.022;12.114;2022-08-19T13:11:20;97172.88;;;24.71;100.00
18795;BME280;29610;49.022;12.114;2022-08-19T13:13:52;97177.09;;;24.79;100.00
18795;BME280;29610;49.022;12.114;2022-08-19T13:16:22;97182.28;;;24.77;100.00
18795;BME280;29610;49.022;12.114;2022-08-19T13:18:52;97192.31;;;24.71;100.00